createdAt,value
2018-09-14T00:00:55.756Z,9.37
2018-09-14T00:05:59.151Z,10.57
2018-09-14T00:11:02.678Z,10.87
2018-09-14T00:16:06.204Z,11.40
2018-09-14T00:21:09.648Z,11.43
2018-09-14T00:26:13.069Z,11.23
2018-09-14T00:31:17.328Z,11.43
2018-09-14T00:36:20.736Z,10.90
2018-09-14T00:41:24.150Z,11.97
2018-09-14T00:46:27.592Z,12.17
2018-09-14T00:51:30.992Z,12.90
2018-09-14T00:56:34.354Z,13.07
2018-09-14T01:01:37.851Z,14.13
2018-09-14T01:06:41.363Z,13.83
2018-09-14T01:11:44.756Z,14.37
2018-09-14T01:16:48.101Z,13.67
2018-09-14T01:21:51.588Z,13.33
2018-09-14T01:26:54.991Z,13.13
2018-09-14T01:31:59.149Z,13.83
2018-09-14T01:37:02.561Z,13.13
2018-09-14T01:42:06.321Z,14.30
2018-09-14T01:47:09.809Z,13.43
2018-09-14T01:52:13.204Z,15.37
2018-09-14T01:57:16.636Z,16.33
2018-09-14T02:02:20.071Z,15.50
2018-09-14T02:07:23.555Z,16.33
2018-09-14T02:12:26.964Z,15.33
2018-09-14T02:17:30.386Z,16.63
2018-09-14T02:22:33.780Z,17.07
2018-09-14T02:27:37.166Z,18.40
2018-09-14T02:32:40.536Z,17.30
2018-09-14T02:37:43.927Z,17.20
2018-09-14T02:42:48.440Z,18.93
2018-09-14T02:47:51.791Z,18.97
2018-09-14T02:52:55.156Z,18.30
2018-09-14T02:57:58.535Z,18.43
2018-09-14T03:03:01.992Z,18.40
2018-09-14T03:08:05.412Z,18.57
2018-09-14T03:13:08.780Z,16.60
2018-09-14T03:18:12.132Z,16.47
2018-09-14T03:23:15.787Z,16.93
2018-09-14T03:28:19.208Z,16.73
2018-09-14T03:33:22.611Z,16.97
2018-09-14T03:38:26.071Z,16.80
2018-09-14T03:43:30.083Z,17.33
2018-09-14T03:48:33.512Z,19.07
2018-09-14T03:53:37.140Z,21.80
2018-09-14T03:58:40.544Z,19.73
2018-09-14T04:03:43.938Z,21.63
2018-09-14T04:08:47.345Z,22.27
2018-09-14T04:13:50.756Z,21.15
2018-09-14T04:18:58.585Z,21.10
2018-09-14T04:24:02.219Z,22.13
2018-09-14T04:29:05.598Z,20.53
2018-09-14T04:34:09.028Z,21.03
2018-09-14T04:39:12.431Z,20.37
2018-09-14T04:44:15.792Z,20.23
2018-09-14T04:49:19.309Z,19.37
2018-09-14T04:54:22.799Z,17.67
2018-09-14T04:59:26.199Z,17.67
2018-09-14T05:04:29.613Z,17.17
2018-09-14T05:09:33.695Z,16.33
2018-09-14T05:14:37.083Z,16.27
2018-09-14T05:19:40.652Z,14.90
2018-09-14T05:24:44.037Z,13.43
2018-09-14T05:29:48.491Z,12.50
2018-09-14T05:34:51.886Z,11.50
2018-09-14T05:39:55.986Z,12.27
2018-09-14T05:44:59.334Z,11.87
2018-09-14T05:50:02.798Z,12.03
2018-09-14T05:55:06.360Z,11.83
2018-09-14T06:00:09.738Z,12.90
2018-09-14T06:05:13.367Z,13.97
2018-09-14T06:10:16.815Z,12.90
2018-09-14T06:15:20.231Z,12.70
2018-09-14T06:20:23.612Z,12.77
2018-09-14T06:25:27.674Z,12.00
2018-09-14T06:30:31.123Z,12.60
2018-09-14T06:35:34.638Z,12.20
2018-09-14T06:40:38.158Z,13.33
2018-09-14T06:45:41.544Z,13.63
2018-09-14T06:50:44.966Z,13.93
2018-09-14T06:55:48.319Z,13.63
2018-09-14T07:00:51.765Z,13.23
2018-09-14T07:05:55.138Z,13.37
2018-09-14T07:10:58.515Z,12.33
2018-09-14T07:16:02.052Z,11.73
2018-09-14T07:21:05.475Z,11.20
2018-09-14T07:26:09.084Z,10.87
2018-09-14T07:31:12.485Z,10.70
2018-09-14T07:36:16.460Z,10.60
2018-09-14T07:41:19.847Z,10.27
2018-09-14T07:46:23.651Z,11.67
2018-09-14T07:51:27.624Z,11.40
2018-09-14T07:56:31.174Z,11.77
2018-09-14T08:01:34.577Z,13.07
2018-09-14T08:06:38.150Z,12.63
2018-09-14T08:11:41.747Z,12.07
2018-09-14T08:16:45.183Z,13.27
2018-09-14T08:21:49.833Z,13.83
2018-09-14T08:26:53.191Z,13.90
2018-09-14T08:31:56.718Z,13.63
2018-09-14T08:37:00.437Z,15.47
2018-09-14T08:42:03.879Z,13.93
2018-09-14T08:47:07.348Z,16.00
2018-09-14T08:52:10.860Z,13.03
2018-09-14T08:57:14.288Z,13.40
2018-09-14T09:02:17.684Z,13.80
2018-09-14T09:07:21.186Z,13.57
2018-09-14T09:12:25.157Z,13.73
2018-09-14T09:17:28.534Z,12.50
2018-09-14T09:22:31.932Z,14.00
2018-09-14T09:27:35.778Z,13.60
2018-09-14T09:32:39.184Z,12.37
2018-09-14T09:37:42.546Z,13.77
2018-09-14T09:42:45.957Z,13.53
2018-09-14T09:47:49.910Z,13.37
2018-09-14T09:52:53.290Z,11.83
2018-09-14T09:57:56.727Z,11.67
2018-09-14T10:03:05.456Z,11.00
2018-09-14T10:08:08.856Z,11.23
2018-09-14T10:13:12.217Z,11.80
2018-09-14T10:18:15.605Z,11.50
2018-09-14T10:23:19.434Z,13.97
2018-09-14T10:28:22.951Z,13.27
2018-09-14T10:33:26.356Z,12.60
2018-09-14T10:38:30.513Z,12.80
2018-09-14T10:43:34.014Z,12.13
2018-09-14T10:48:37.474Z,11.77
2018-09-14T10:53:40.851Z,11.13
2018-09-14T10:58:44.983Z,12.63
2018-09-14T11:03:48.818Z,12.00
2018-09-14T11:08:52.231Z,11.33
2018-09-14T11:13:55.949Z,11.23
2018-09-14T11:19:00.090Z,11.13
2018-09-14T11:24:04.324Z,12.60
2018-09-14T11:29:07.826Z,11.23
2018-09-14T11:34:11.222Z,11.20
2018-09-14T11:39:14.676Z,9.93
2018-09-14T11:44:18.056Z,10.67
2018-09-14T11:49:21.491Z,10.23
2018-09-14T11:54:25.110Z,11.03
2018-09-14T11:59:28.603Z,9.97
2018-09-14T12:04:31.986Z,9.67
2018-09-14T12:09:35.925Z,10.63
2018-09-14T12:14:39.295Z,11.70
2018-09-14T12:19:42.683Z,11.80
2018-09-14T12:24:46.764Z,11.00
2018-09-14T12:29:50.247Z,11.73
2018-09-14T12:34:53.865Z,11.63
2018-09-14T12:39:57.286Z,10.67
2018-09-14T12:45:01.397Z,9.83
2018-09-14T12:50:05.528Z,10.03
2018-09-14T12:55:08.917Z,9.30
2018-09-14T13:00:12.283Z,11.47
2018-09-14T13:05:15.680Z,10.67
2018-09-14T13:10:19.089Z,10.20
2018-09-14T13:15:22.512Z,9.67
2018-09-14T13:20:25.883Z,9.20
2018-09-14T13:25:29.288Z,8.90
2018-09-14T13:30:32.640Z,8.60
2018-09-14T13:35:36.071Z,8.20
2018-09-14T13:40:39.439Z,7.80
2018-09-14T13:45:42.792Z,7.23
2018-09-14T13:50:46.155Z,7.53
2018-09-14T13:55:49.482Z,7.60
2018-09-14T14:00:53.098Z,7.97
2018-09-14T14:05:56.678Z,7.13
2018-09-14T14:11:00.031Z,6.73
2018-09-14T14:16:03.469Z,6.43
2018-09-14T14:21:07.309Z,6.93
2018-09-14T14:26:10.721Z,6.57
2018-09-14T14:31:14.108Z,8.63
2018-09-14T14:36:17.437Z,9.17
2018-09-14T14:41:20.939Z,8.50
2018-09-14T14:46:24.903Z,7.97
2018-09-14T14:51:28.318Z,7.20
2018-09-14T14:56:31.700Z,6.60
2018-09-14T15:01:35.114Z,6.47
2018-09-14T15:06:38.488Z,7.70
2018-09-14T15:11:41.937Z,6.50
2018-09-14T15:16:45.296Z,7.57
2018-09-14T15:21:48.709Z,6.80
2018-09-14T15:26:53.175Z,7.03
2018-09-14T15:31:57.298Z,6.60
2018-09-14T15:37:00.691Z,6.60
2018-09-14T15:42:04.046Z,6.57
2018-09-14T15:47:07.455Z,7.13
2018-09-14T15:52:11.043Z,5.83
2018-09-14T15:57:14.394Z,6.20
2018-09-14T16:02:17.766Z,6.10
2018-09-14T16:07:21.131Z,5.53
2018-09-14T16:12:24.532Z,5.50
2018-09-14T16:17:28.078Z,5.73
2018-09-14T16:22:31.473Z,26.30
2018-09-14T16:27:34.895Z,6.53
2018-09-14T16:32:38.931Z,5.80
2018-09-14T16:37:42.307Z,5.47
2018-09-14T16:42:45.727Z,6.27
2018-09-14T16:47:49.106Z,6.03
2018-09-14T16:52:52.624Z,5.13
2018-09-14T16:57:56.031Z,4.87
2018-09-14T17:02:59.476Z,5.57
2018-09-14T17:08:02.819Z,5.70
2018-09-14T17:13:06.381Z,6.33
2018-09-14T17:18:10.826Z,6.67
2018-09-14T17:23:14.269Z,6.90
2018-09-14T17:28:17.707Z,7.47
2018-09-14T17:33:21.924Z,7.50
2018-09-14T17:38:25.423Z,8.37
2018-09-14T17:43:28.960Z,7.47
2018-09-14T17:48:34.511Z,7.07
2018-09-14T17:53:37.980Z,7.53
2018-09-14T17:58:41.590Z,7.30
2018-09-14T18:03:44.954Z,7.57
2018-09-14T18:08:48.413Z,7.90
2018-09-14T18:13:52.233Z,8.30
2018-09-14T18:18:55.609Z,8.00
2018-09-14T18:23:58.950Z,8.73
2018-09-14T18:29:02.351Z,8.83
2018-09-14T18:34:05.799Z,9.17
2018-09-14T18:39:11.768Z,9.30
2018-09-14T18:44:15.450Z,9.07
2018-09-14T18:49:19.162Z,9.53
2018-09-14T18:54:22.678Z,8.57
2018-09-14T18:59:26.171Z,9.40
2018-09-14T19:04:30.092Z,8.77
2018-09-14T19:09:33.807Z,9.90
2018-09-14T19:14:37.241Z,9.53
2018-09-14T19:19:41.331Z,9.70
2018-09-14T19:24:45.143Z,8.27
2018-09-14T19:29:48.773Z,8.20
2018-09-14T19:34:52.399Z,8.27
2018-09-14T19:39:56.121Z,9.47
2018-09-14T19:44:59.837Z,8.10
2018-09-14T19:50:03.896Z,8.27
2018-09-14T19:55:07.397Z,8.27
2018-09-14T20:00:10.845Z,7.63
2018-09-14T20:05:14.655Z,8.20
2018-09-14T20:10:19.272Z,7.97
2018-09-14T20:15:22.875Z,7.60
2018-09-14T20:20:26.508Z,8.60
2018-09-14T20:25:29.919Z,10.10
2018-09-14T20:30:33.352Z,11.13
2018-09-14T20:35:36.690Z,11.60
2018-09-14T20:40:40.121Z,11.87
2018-09-14T20:45:43.536Z,12.03
2018-09-14T20:50:46.963Z,13.77
2018-09-14T20:55:50.366Z,11.90
2018-09-14T21:00:54.643Z,12.53
2018-09-14T21:05:58.165Z,13.03
2018-09-14T21:11:02.163Z,12.33
2018-09-14T21:16:06.280Z,13.30
2018-09-14T21:21:09.940Z,13.00
2018-09-14T21:26:13.340Z,12.70
2018-09-14T21:31:17.083Z,12.37
2018-09-14T21:36:21.845Z,13.53
2018-09-14T21:41:25.508Z,12.00
2018-09-14T21:46:28.957Z,11.63
2018-09-14T21:51:33.700Z,11.90
2018-09-14T21:56:37.124Z,12.00
2018-09-14T22:01:40.636Z,11.60
2018-09-14T22:06:44.072Z,11.73
2018-09-14T22:11:47.548Z,11.20
2018-09-14T22:16:51.369Z,11.47
2018-09-14T22:21:54.795Z,11.77
2018-09-14T22:26:58.319Z,10.97
2018-09-14T22:32:01.711Z,11.03
2018-09-14T22:37:05.436Z,14.23
2018-09-14T22:42:08.992Z,11.90
2018-09-14T22:47:12.370Z,11.60
2018-09-14T22:52:15.771Z,12.07
2018-09-14T22:57:19.146Z,11.57
2018-09-14T23:02:22.510Z,11.33
2018-09-14T23:07:25.883Z,11.57
2018-09-14T23:12:29.250Z,11.87
2018-09-14T23:17:32.615Z,12.30
2018-09-14T23:22:36.070Z,12.23
2018-09-14T23:27:39.422Z,12.00
2018-09-14T23:32:42.742Z,11.87
2018-09-14T23:37:46.132Z,11.80
2018-09-14T23:42:49.532Z,11.40
2018-09-14T23:47:52.917Z,12.63
2018-09-14T23:52:56.403Z,12.87
2018-09-14T23:57:59.730Z,12.90
